createdAt,value
2023-05-21T00:01:26.090Z,86.30
2023-05-21T00:03:56.958Z,86.18
2023-05-21T00:06:28.196Z,86.11
2023-05-21T00:08:59.157Z,86.16
2023-05-21T00:11:29.888Z,86.42
2023-05-21T00:14:03.333Z,86.24
2023-05-21T00:16:34.196Z,86.39
2023-05-21T00:19:05.234Z,86.24
2023-05-21T00:21:36.047Z,86.25
2023-05-21T00:24:06.841Z,86.23
2023-05-21T00:26:37.606Z,86.26
2023-05-21T00:29:11.299Z,86.52
2023-05-21T00:31:42.241Z,86.67
2023-05-21T00:34:13.168Z,86.63
2023-05-21T00:36:45.823Z,86.74
2023-05-21T00:39:17.248Z,86.61
2023-05-21T00:41:48.978Z,86.59
2023-05-21T00:44:25.916Z,86.84
2023-05-21T00:46:56.855Z,86.81
2023-05-21T00:49:27.679Z,86.85
2023-05-21T00:52:01.931Z,86.90
2023-05-21T00:54:33.930Z,86.74
2023-05-21T00:57:06.176Z,86.76
2023-05-21T00:59:39.784Z,86.90
2023-05-21T01:02:14.496Z,86.83
2023-05-21T01:04:45.328Z,87.07
2023-05-21T01:07:16.597Z,86.91
2023-05-21T01:09:47.338Z,87.19
2023-05-21T01:12:21.368Z,87.40
2023-05-21T01:14:55.394Z,87.25
2023-05-21T01:17:26.630Z,87.32
2023-05-21T01:19:58.616Z,87.22
2023-05-21T01:22:32.737Z,87.41
2023-05-21T01:25:07.160Z,87.52
2023-05-21T01:27:37.976Z,87.35
2023-05-21T01:30:10.486Z,87.38
2023-05-21T01:32:51.426Z,87.39
2023-05-21T01:35:26.259Z,87.34
2023-05-21T01:38:02.797Z,87.57
2023-05-21T01:40:45.164Z,87.39
2023-05-21T01:43:17.460Z,87.39
2023-05-21T01:45:49.777Z,87.44
2023-05-21T01:48:21.971Z,87.46
2023-05-21T01:50:55.659Z,87.51
2023-05-21T01:53:26.415Z,87.70
2023-05-21T01:55:59.895Z,87.74
2023-05-21T01:58:30.865Z,87.64
2023-05-21T02:01:03.160Z,87.63
2023-05-21T02:03:34.757Z,87.90
2023-05-21T02:06:05.804Z,87.88
2023-05-21T02:08:36.949Z,87.86
2023-05-21T02:11:10.904Z,87.86
2023-05-21T02:13:43.002Z,87.69
2023-05-21T02:16:15.194Z,87.82
2023-05-21T02:18:48.494Z,87.95
2023-05-21T02:21:20.952Z,88.12
2023-05-21T02:23:52.368Z,88.18
2023-05-21T02:26:25.878Z,88.19
2023-05-21T02:28:57.453Z,88.27
2023-05-21T02:31:28.415Z,88.17
2023-05-21T02:33:59.422Z,87.96
2023-05-21T02:36:33.657Z,88.17
2023-05-21T02:39:04.633Z,87.86
2023-05-21T02:41:38.522Z,88.16
2023-05-21T02:44:09.457Z,88.16
2023-05-21T02:46:40.228Z,88.21
2023-05-21T02:49:11.164Z,88.10
2023-05-21T02:51:43.685Z,88.21
2023-05-21T02:54:14.520Z,88.39
2023-05-21T02:56:48.034Z,88.30
2023-05-21T02:59:18.821Z,88.33
2023-05-21T03:01:49.758Z,88.25
2023-05-21T03:04:22.189Z,88.41
2023-05-21T03:06:55.343Z,88.26
2023-05-21T03:09:26.321Z,88.39
2023-05-21T03:12:01.783Z,88.15
2023-05-21T03:14:33.121Z,88.40
2023-05-21T03:17:06.430Z,88.29
2023-05-21T03:19:37.808Z,88.26
2023-05-21T03:22:09.363Z,88.29
2023-05-21T03:24:42.590Z,88.34
2023-05-21T03:27:16.102Z,88.56
2023-05-21T03:29:48.082Z,88.48
2023-05-21T03:32:19.454Z,88.64
2023-05-21T03:34:52.292Z,88.67
2023-05-21T03:37:23.214Z,88.49
2023-05-21T03:39:54.417Z,88.50
2023-05-21T03:42:27.864Z,88.41
2023-05-21T03:45:00.245Z,88.47
2023-05-21T03:47:54.003Z,88.53
2023-05-21T03:50:24.978Z,88.42
2023-05-21T03:52:55.766Z,88.54
2023-05-21T03:55:26.714Z,88.73
2023-05-21T03:58:00.197Z,88.66
2023-05-21T04:00:32.911Z,88.60
2023-05-21T04:03:04.133Z,88.75
2023-05-21T04:05:35.323Z,88.90
2023-05-21T04:08:07.184Z,88.73
2023-05-21T04:10:38.432Z,88.92
2023-05-21T04:13:11.815Z,88.79
2023-05-21T04:15:44.137Z,88.62
2023-05-21T04:18:15.823Z,88.69
2023-05-21T04:20:47.435Z,88.54
2023-05-21T04:23:18.219Z,88.57
2023-05-21T04:25:51.201Z,88.53
2023-05-21T04:28:25.059Z,88.44
2023-05-21T04:30:56.912Z,88.59
2023-05-21T04:33:29.043Z,88.72
2023-05-21T04:36:00.155Z,88.66
2023-05-21T04:38:31.202Z,88.98
2023-05-21T04:41:04.165Z,88.98
2023-05-21T04:43:38.653Z,88.91
2023-05-21T04:46:09.853Z,89.29
2023-05-21T04:48:41.323Z,89.43
2023-05-21T04:51:13.408Z,89.27
2023-05-21T04:53:44.147Z,89.33
2023-05-21T04:56:14.984Z,89.73
2023-05-21T04:58:49.471Z,90.00
2023-05-21T05:01:20.524Z,90.16
2023-05-21T05:03:51.617Z,90.21
2023-05-21T05:06:22.675Z,90.38
2023-05-21T05:08:53.475Z,88.93
2023-05-21T05:11:25.594Z,87.37
2023-05-21T05:13:58.973Z,86.31
2023-05-21T05:16:30.027Z,85.49
2023-05-21T05:19:01.311Z,85.21
2023-05-21T05:21:33.510Z,84.66
2023-05-21T05:24:04.608Z,84.76
2023-05-21T05:26:36.267Z,84.36
2023-05-21T05:29:09.700Z,83.75
2023-05-21T05:31:40.917Z,83.38
2023-05-21T05:34:11.870Z,83.24
2023-05-21T05:36:42.638Z,83.03
2023-05-21T05:39:13.552Z,82.63
2023-05-21T05:41:46.728Z,82.82
2023-05-21T05:44:20.157Z,83.08
2023-05-21T05:46:50.987Z,83.00
2023-05-21T05:49:21.840Z,82.54
2023-05-21T05:51:52.692Z,81.49
2023-05-21T05:54:23.697Z,81.09
2023-05-21T05:56:54.676Z,81.08
2023-05-21T05:59:28.379Z,81.51
2023-05-21T06:02:03.447Z,81.84
2023-05-21T06:04:34.412Z,81.17
2023-05-21T06:07:05.222Z,80.41
2023-05-21T06:09:36.167Z,80.03
2023-05-21T06:12:08.661Z,79.49
2023-05-21T06:14:45.049Z,79.07
2023-05-21T06:17:16.664Z,79.41
2023-05-21T06:19:47.864Z,79.16
2023-05-21T06:22:18.636Z,79.15
2023-05-21T06:24:49.594Z,78.92
2023-05-21T06:27:20.555Z,79.29
2023-05-21T06:29:55.177Z,79.34
2023-05-21T06:32:26.179Z,79.76
2023-05-21T06:34:57.010Z,79.61
2023-05-21T06:37:28.583Z,79.48
2023-05-21T06:39:59.657Z,79.90
2023-05-21T06:42:30.602Z,79.79
2023-05-21T06:45:36.591Z,79.74
2023-05-21T06:48:23.163Z,79.87
2023-05-21T06:50:54.974Z,80.17
2023-05-21T06:53:26.119Z,80.36
2023-05-21T06:55:56.883Z,80.37
2023-05-21T06:58:54.792Z,80.57
2023-05-21T07:01:28.865Z,79.84
2023-05-21T07:04:01.352Z,79.48
2023-05-21T07:06:32.475Z,79.54
2023-05-21T07:09:03.370Z,80.36
2023-05-21T07:11:35.032Z,79.64
2023-05-21T07:14:07.625Z,78.91
2023-05-21T07:16:42.900Z,78.58
2023-05-21T07:19:13.854Z,77.59
2023-05-21T07:21:46.511Z,76.30
2023-05-21T07:24:17.271Z,74.64
2023-05-21T07:26:48.022Z,73.00
2023-05-21T07:29:18.851Z,71.95
2023-05-21T07:31:52.393Z,69.61
2023-05-21T07:34:24.759Z,70.22
2023-05-21T07:36:56.709Z,69.20
2023-05-21T07:39:27.525Z,67.40
2023-05-21T07:41:59.177Z,67.03
2023-05-21T07:44:30.219Z,65.92
2023-05-21T07:47:03.703Z,66.35
2023-05-21T07:49:34.630Z,66.07
2023-05-21T07:52:05.609Z,66.04
2023-05-21T07:54:36.792Z,65.93
2023-05-21T07:57:08.701Z,66.75
2023-05-21T07:59:55.435Z,67.13
2023-05-21T08:02:29.575Z,66.53
2023-05-21T08:05:02.008Z,65.60
2023-05-21T08:07:35.716Z,65.78
2023-05-21T08:10:06.712Z,65.65
2023-05-21T08:12:37.697Z,65.04
2023-05-21T08:15:11.030Z,63.11
2023-05-21T08:17:49.946Z,62.40
2023-05-21T08:20:20.965Z,62.32
2023-05-21T08:22:53.839Z,61.88
2023-05-21T08:25:25.443Z,59.78
2023-05-21T08:27:58.197Z,58.90
2023-05-21T08:30:29.361Z,58.73
2023-05-21T08:33:04.375Z,57.96
2023-05-21T08:35:38.020Z,56.28
2023-05-21T08:38:19.238Z,54.55
2023-05-21T08:41:04.350Z,54.03
2023-05-21T08:43:35.401Z,52.77
2023-05-21T08:46:10.005Z,51.64
2023-05-21T08:48:46.790Z,51.36
2023-05-21T08:51:17.861Z,50.12
2023-05-21T08:53:54.206Z,48.97
2023-05-21T08:56:26.318Z,48.38
2023-05-21T08:58:59.669Z,46.50
2023-05-21T09:01:38.674Z,46.20
2023-05-21T09:04:36.765Z,45.40
2023-05-21T09:07:08.194Z,44.95
2023-05-21T09:10:00.456Z,44.87
2023-05-21T09:12:31.882Z,43.91
2023-05-21T09:15:05.505Z,43.40
2023-05-21T09:17:39.318Z,43.17
2023-05-21T09:20:38.782Z,42.83
2023-05-21T09:23:12.777Z,41.94
2023-05-21T09:25:43.990Z,42.16
2023-05-21T09:28:18.660Z,42.30
2023-05-21T09:30:50.296Z,42.68
2023-05-21T09:33:29.912Z,41.39
2023-05-21T09:36:03.883Z,41.90
2023-05-21T09:38:37.169Z,41.57
2023-05-21T09:41:09.070Z,43.37
2023-05-21T09:43:40.302Z,43.15
2023-05-21T09:46:11.288Z,43.01
2023-05-21T09:48:43.805Z,43.68
2023-05-21T09:51:23.570Z,42.89
2023-05-21T09:53:55.122Z,43.07
2023-05-21T09:56:27.535Z,43.05
2023-05-21T09:59:00.656Z,41.00
2023-05-21T10:01:34.242Z,40.86
2023-05-21T10:04:09.675Z,40.27
2023-05-21T10:06:48.120Z,40.92
2023-05-21T10:09:22.766Z,41.06
2023-05-21T10:11:57.216Z,40.77
2023-05-21T10:14:33.409Z,40.32
2023-05-21T10:17:04.531Z,41.37
2023-05-21T10:19:37.657Z,41.76
2023-05-21T10:22:11.959Z,42.10
2023-05-21T10:24:44.400Z,41.50
2023-05-21T10:27:17.280Z,39.98
2023-05-21T10:29:49.468Z,39.87
2023-05-21T10:32:20.274Z,38.96
2023-05-21T10:34:51.876Z,39.04
2023-05-21T10:37:27.866Z,37.08
2023-05-21T10:39:59.159Z,36.70
2023-05-21T10:42:59.289Z,37.35
2023-05-21T10:45:40.973Z,38.57
2023-05-21T10:48:31.138Z,37.13
2023-05-21T10:51:24.194Z,37.42
2023-05-21T10:54:22.124Z,36.42
2023-05-21T10:57:04.785Z,36.71
2023-05-21T10:59:43.357Z,37.20
2023-05-21T11:02:17.772Z,37.24
2023-05-21T11:04:49.588Z,38.53
2023-05-21T11:07:26.967Z,37.18
2023-05-21T11:10:33.210Z,36.15
2023-05-21T11:13:16.649Z,37.09
2023-05-21T11:16:16.820Z,37.11
2023-05-21T11:19:05.960Z,37.81
2023-05-21T11:21:39.876Z,38.84
2023-05-21T11:24:11.574Z,39.87
2023-05-21T11:27:07.144Z,39.65
2023-05-21T11:29:44.660Z,39.87
2023-05-21T11:32:20.906Z,41.09
2023-05-21T11:34:51.978Z,40.67
2023-05-21T11:37:31.279Z,41.62
2023-05-21T11:40:17.556Z,42.16
2023-05-21T11:42:53.975Z,42.29
2023-05-21T11:45:25.814Z,41.47
2023-05-21T11:47:57.944Z,42.49
2023-05-21T11:50:30.930Z,41.94
2023-05-21T11:53:03.033Z,41.40
2023-05-21T11:55:35.009Z,41.19
2023-05-21T11:58:12.121Z,41.40
2023-05-21T12:00:44.809Z,42.19
2023-05-21T12:03:18.502Z,40.80
2023-05-21T12:05:50.265Z,40.97
2023-05-21T12:08:26.005Z,41.42
2023-05-21T12:11:02.101Z,40.66
2023-05-21T12:13:35.691Z,40.73
2023-05-21T12:16:07.268Z,40.79
2023-05-21T12:18:40.325Z,40.87
2023-05-21T12:21:12.683Z,41.84
2023-05-21T12:23:43.599Z,41.63
2023-05-21T12:26:15.446Z,41.94
2023-05-21T12:28:49.223Z,42.46
2023-05-21T12:31:20.151Z,41.65
2023-05-21T12:33:51.791Z,41.71
2023-05-21T12:36:26.691Z,41.34
2023-05-21T12:38:57.197Z,41.55
2023-05-21T12:41:28.341Z,41.35
2023-05-21T12:44:01.866Z,41.09
2023-05-21T12:46:33.039Z,40.77
2023-05-21T12:49:04.697Z,41.21
2023-05-21T12:51:42.238Z,41.09
2023-05-21T12:54:16.247Z,41.16
2023-05-21T12:56:50.103Z,40.72
2023-05-21T12:59:23.609Z,40.80
2023-05-21T13:01:56.333Z,41.34
2023-05-21T13:04:27.665Z,42.02
2023-05-21T13:06:58.954Z,42.00
2023-05-21T13:09:29.841Z,41.90
2023-05-21T13:12:00.773Z,42.77
2023-05-21T13:14:34.436Z,42.86
2023-05-21T13:17:05.310Z,43.09
2023-05-21T13:19:36.261Z,43.41
2023-05-21T13:22:07.597Z,44.31
2023-05-21T13:24:40.162Z,40.83
2023-05-21T13:27:11.089Z,40.62
2023-05-21T13:29:44.547Z,40.78
2023-05-21T13:32:15.421Z,41.53
2023-05-21T13:34:46.744Z,44.07
2023-05-21T13:37:17.589Z,45.65
2023-05-21T13:39:48.498Z,47.00
2023-05-21T13:42:20.050Z,48.61
2023-05-21T13:44:53.572Z,49.54
2023-05-21T13:47:24.319Z,50.71
2023-05-21T13:49:55.675Z,52.10
2023-05-21T13:52:26.602Z,53.06
2023-05-21T13:54:57.750Z,52.83
2023-05-21T13:57:31.189Z,52.26
2023-05-21T14:00:05.074Z,52.12
2023-05-21T14:02:39.686Z,52.89
2023-05-21T14:05:11.286Z,53.12
2023-05-21T14:07:43.213Z,53.02
2023-05-21T14:10:14.915Z,53.00
2023-05-21T14:12:46.440Z,53.21
2023-05-21T14:15:20.180Z,53.92
2023-05-21T14:17:52.721Z,54.20
2023-05-21T14:20:23.602Z,54.78
2023-05-21T14:22:54.391Z,55.66
2023-05-21T14:25:25.280Z,56.28
2023-05-21T14:27:56.315Z,57.11
2023-05-21T14:30:29.877Z,58.35
2023-05-21T14:33:01.581Z,58.38
2023-05-21T14:35:32.571Z,58.63
2023-05-21T14:38:03.400Z,58.84
2023-05-21T14:40:34.197Z,59.20
2023-05-21T14:43:07.335Z,59.47
2023-05-21T14:45:40.902Z,59.97
2023-05-21T14:48:12.144Z,60.50
2023-05-21T14:50:43.122Z,60.73
2023-05-21T14:53:15.284Z,60.98
2023-05-21T14:55:46.602Z,61.68
2023-05-21T14:58:17.546Z,61.29
2023-05-21T15:00:51.076Z,61.14
2023-05-21T15:03:22.150Z,61.31
2023-05-21T15:05:53.111Z,61.75
2023-05-21T15:08:24.064Z,61.84
2023-05-21T15:10:54.798Z,62.21
2023-05-21T15:13:25.635Z,62.61
2023-05-21T15:15:59.274Z,62.97
2023-05-21T15:18:30.057Z,63.09
2023-05-21T15:21:00.945Z,62.64
2023-05-21T15:23:32.608Z,63.44
2023-05-21T15:26:03.448Z,63.34
2023-05-21T15:28:35.378Z,63.69
2023-05-21T15:31:08.786Z,63.75
2023-05-21T15:33:39.691Z,63.87
2023-05-21T15:36:11.388Z,63.74
2023-05-21T15:38:42.276Z,63.34
2023-05-21T15:41:15.795Z,63.43
2023-05-21T15:43:46.512Z,63.00
2023-05-21T15:46:20.103Z,63.13
2023-05-21T15:48:51.011Z,63.17
2023-05-21T15:51:22.099Z,62.66
2023-05-21T15:53:52.988Z,62.96
2023-05-21T15:56:23.813Z,62.78
2023-05-21T15:58:54.723Z,63.22
2023-05-21T16:01:30.003Z,62.98
2023-05-21T16:04:00.901Z,62.99
2023-05-21T16:06:33.122Z,62.07
2023-05-21T16:09:06.507Z,61.66
2023-05-21T16:11:37.592Z,61.29
2023-05-21T16:14:08.470Z,61.01
2023-05-21T16:16:42.388Z,61.22
2023-05-21T16:19:13.305Z,60.48
2023-05-21T16:21:44.984Z,60.59
2023-05-21T16:24:15.973Z,60.35
2023-05-21T16:26:47.431Z,60.18
2023-05-21T16:29:18.322Z,60.21
2023-05-21T16:31:51.810Z,60.22
2023-05-21T16:34:22.755Z,60.22
2023-05-21T16:36:54.246Z,60.43
2023-05-21T16:39:25.083Z,60.38
2023-05-21T16:41:59.963Z,60.42
2023-05-21T16:44:32.330Z,60.75
2023-05-21T16:47:05.895Z,60.54
2023-05-21T16:49:36.717Z,60.64
2023-05-21T16:52:07.734Z,61.01
2023-05-21T16:54:38.624Z,61.06
2023-05-21T16:57:09.899Z,61.27
2023-05-21T16:59:40.708Z,61.77
2023-05-21T17:02:16.066Z,61.88
2023-05-21T17:04:47.005Z,61.78
2023-05-21T17:07:19.183Z,61.60
2023-05-21T17:09:50.006Z,61.51
2023-05-21T17:12:20.861Z,61.20
2023-05-21T17:14:52.299Z,61.09
2023-05-21T17:17:25.814Z,61.13
2023-05-21T17:19:56.701Z,60.91
2023-05-21T17:22:27.797Z,60.97
2023-05-21T17:24:59.097Z,61.23
2023-05-21T17:27:30.078Z,61.41
2023-05-21T17:30:01.042Z,61.31
2023-05-21T17:32:34.776Z,62.52
2023-05-21T17:35:05.921Z,62.96
2023-05-21T17:37:36.705Z,63.22
2023-05-21T17:40:08.623Z,63.72
2023-05-21T17:42:39.582Z,64.45
2023-05-21T17:45:11.318Z,64.44
2023-05-21T17:47:44.756Z,64.80
2023-05-21T17:50:15.865Z,64.89
2023-05-21T17:52:46.848Z,65.13
2023-05-21T17:55:17.823Z,65.64
2023-05-21T17:57:48.714Z,65.99
2023-05-21T18:00:20.115Z,66.18
2023-05-21T18:02:53.647Z,65.89
2023-05-21T18:05:25.030Z,65.83
2023-05-21T18:07:56.357Z,66.28
2023-05-21T18:10:27.678Z,66.66
2023-05-21T18:12:58.820Z,67.05
2023-05-21T18:15:29.909Z,66.99
2023-05-21T18:18:07.182Z,67.22
2023-05-21T18:20:38.309Z,67.41
2023-05-21T18:23:09.680Z,67.34
2023-05-21T18:25:40.634Z,67.77
2023-05-21T18:28:11.608Z,67.75
2023-05-21T18:30:42.658Z,67.95
2023-05-21T18:33:17.007Z,67.91
2023-05-21T18:35:47.961Z,68.63
2023-05-21T18:38:18.747Z,68.39
2023-05-21T18:40:49.780Z,68.60
2023-05-21T18:43:21.006Z,68.55
2023-05-21T18:45:53.205Z,68.78
2023-05-21T18:48:26.665Z,68.81
2023-05-21T18:50:58.383Z,68.71
2023-05-21T18:53:29.253Z,68.78
2023-05-21T18:56:00.181Z,68.85
2023-05-21T18:58:33.425Z,68.92
2023-05-21T19:01:04.680Z,68.81
2023-05-21T19:03:38.494Z,68.94
2023-05-21T19:06:09.784Z,68.88
2023-05-21T19:08:41.629Z,69.23
2023-05-21T19:11:12.474Z,69.32
2023-05-21T19:13:43.266Z,69.48
2023-05-21T19:16:14.187Z,69.59
2023-05-21T19:18:48.353Z,69.57
2023-05-21T19:21:22.434Z,69.89
2023-05-21T19:23:54.098Z,70.21
2023-05-21T19:26:25.333Z,70.17
2023-05-21T19:28:56.905Z,70.12
2023-05-21T19:31:28.350Z,70.39
2023-05-21T19:34:01.871Z,70.42
2023-05-21T19:36:48.869Z,70.75
2023-05-21T19:39:23.646Z,70.69
2023-05-21T19:41:54.774Z,70.74
2023-05-21T19:44:25.492Z,70.51
2023-05-21T19:46:56.375Z,70.80
2023-05-21T19:49:29.922Z,70.70
2023-05-21T19:52:00.862Z,70.82
2023-05-21T19:54:32.221Z,70.73
2023-05-21T19:57:03.124Z,71.03
2023-05-21T19:59:33.966Z,70.94
2023-05-21T20:02:04.930Z,71.10
2023-05-21T20:04:39.245Z,71.13
2023-05-21T20:07:10.623Z,71.05
2023-05-21T20:09:42.282Z,71.24
2023-05-21T20:12:13.367Z,70.65
2023-05-21T20:14:47.115Z,71.28
2023-05-21T20:17:19.155Z,71.13
2023-05-21T20:19:52.487Z,71.93
2023-05-21T20:22:23.595Z,72.29
2023-05-21T20:24:54.566Z,72.25
2023-05-21T20:27:25.495Z,72.50
2023-05-21T20:29:56.323Z,72.96
2023-05-21T20:32:27.306Z,72.91
2023-05-21T20:35:03.270Z,73.34
2023-05-21T20:37:37.267Z,73.21
2023-05-21T20:40:09.533Z,73.37
2023-05-21T20:42:40.529Z,73.44
2023-05-21T20:45:13.212Z,73.46
2023-05-21T20:47:44.069Z,73.73
2023-05-21T20:50:20.200Z,73.50
2023-05-21T20:52:52.313Z,73.55
2023-05-21T20:55:23.297Z,73.67
2023-05-21T20:57:54.540Z,73.72
2023-05-21T21:00:26.081Z,73.72
2023-05-21T21:02:58.645Z,73.64
2023-05-21T21:05:32.267Z,74.30
2023-05-21T21:08:03.233Z,74.21
2023-05-21T21:10:34.032Z,74.48
2023-05-21T21:13:07.538Z,74.32
2023-05-21T21:15:38.913Z,74.30
2023-05-21T21:18:09.791Z,74.15
2023-05-21T21:20:43.644Z,74.71
2023-05-21T21:23:14.536Z,74.04
2023-05-21T21:25:45.466Z,74.42
2023-05-21T21:28:16.301Z,74.24
2023-05-21T21:30:47.330Z,74.35
2023-05-21T21:33:18.436Z,74.16
2023-05-21T21:35:52.081Z,74.00
2023-05-21T21:38:22.876Z,74.49
2023-05-21T21:40:54.755Z,74.34
2023-05-21T21:43:25.419Z,74.74
2023-05-21T21:45:56.326Z,74.70
2023-05-21T21:48:27.121Z,74.83
2023-05-21T21:51:00.668Z,75.07
2023-05-21T21:53:31.405Z,75.21
2023-05-21T21:56:02.269Z,75.13
2023-05-21T21:58:33.067Z,75.32
2023-05-21T22:01:03.968Z,75.31
2023-05-21T22:03:35.693Z,75.15
2023-05-21T22:06:09.421Z,75.24
2023-05-21T22:08:40.127Z,75.28
2023-05-21T22:11:11.005Z,75.49
2023-05-21T22:13:42.050Z,75.72
2023-05-21T22:16:13.275Z,75.60
2023-05-21T22:18:44.217Z,75.53
2023-05-21T22:21:18.818Z,75.64
2023-05-21T22:23:49.558Z,75.76
2023-05-21T22:26:20.573Z,75.79
2023-05-21T22:28:51.780Z,76.15
2023-05-21T22:31:23.061Z,75.97
2023-05-21T22:33:54.010Z,75.95
2023-05-21T22:36:28.143Z,76.07
2023-05-21T22:38:59.050Z,76.20
2023-05-21T22:41:30.092Z,76.10
2023-05-21T22:44:01.180Z,76.38
2023-05-21T22:46:32.368Z,76.48
2023-05-21T22:49:03.142Z,76.28
2023-05-21T22:51:37.058Z,76.12
2023-05-21T22:54:08.086Z,76.01
2023-05-21T22:56:39.002Z,76.13
2023-05-21T22:59:09.971Z,76.17
2023-05-21T23:01:41.123Z,76.40
2023-05-21T23:04:11.900Z,76.09
2023-05-21T23:06:46.044Z,76.35
2023-05-21T23:09:16.741Z,76.34
2023-05-21T23:11:48.220Z,76.34
2023-05-21T23:14:18.988Z,76.50
2023-05-21T23:16:49.830Z,76.70
2023-05-21T23:19:21.474Z,76.70
2023-05-21T23:21:55.023Z,76.83
2023-05-21T23:24:26.090Z,76.93
2023-05-21T23:26:57.116Z,76.96
2023-05-21T23:29:28.074Z,77.22
2023-05-21T23:32:01.325Z,77.52
2023-05-21T23:34:32.236Z,77.94
2023-05-21T23:37:07.422Z,78.53
2023-05-21T23:39:37.966Z,78.00
2023-05-21T23:42:09.363Z,78.01
2023-05-21T23:44:40.184Z,78.74
2023-05-21T23:47:10.976Z,78.34
2023-05-21T23:49:42.566Z,78.44
2023-05-21T23:52:17.568Z,78.67
2023-05-21T23:54:48.420Z,78.91
2023-05-21T23:57:19.156Z,78.94
2023-05-21T23:59:50.127Z,78.75
